createdAt,value
2022-09-29T00:02:44.941Z,13.13
2022-09-29T00:05:51.863Z,11.43
2022-09-29T00:08:53.991Z,10.10
2022-09-29T00:11:56.276Z,11.50
2022-09-29T00:14:58.375Z,9.88
2022-09-29T00:18:13.787Z,9.87
2022-09-29T00:21:19.999Z,10.85
2022-09-29T00:24:22.649Z,10.77
2022-09-29T00:27:24.870Z,11.35
2022-09-29T00:30:28.429Z,14.00
2022-09-29T00:33:31.401Z,12.30
2022-09-29T00:36:33.603Z,11.93
2022-09-29T00:39:35.883Z,13.48
2022-09-29T00:42:38.205Z,10.10
2022-09-29T00:45:41.442Z,12.10
2022-09-29T00:48:43.786Z,11.30
2022-09-29T00:51:48.787Z,10.15
2022-09-29T00:54:53.635Z,11.57
2022-09-29T00:58:02.040Z,9.75
2022-09-29T01:01:04.801Z,10.07
2022-09-29T01:04:09.204Z,6.53
2022-09-29T01:07:11.939Z,12.43
2022-09-29T01:10:17.358Z,10.93
2022-09-29T01:13:20.071Z,14.40
2022-09-29T01:16:22.280Z,18.02
2022-09-29T01:19:39.347Z,19.07
2022-09-29T01:23:00.167Z,17.55
2022-09-29T01:26:25.508Z,18.35
2022-09-29T01:29:46.458Z,15.85
2022-09-29T01:32:51.957Z,15.75
2022-09-29T01:36:03.516Z,17.40
2022-09-29T01:39:17.951Z,16.42
2022-09-29T01:42:26.584Z,15.30
2022-09-29T01:45:40.463Z,16.15
2022-09-29T01:48:45.530Z,17.30
2022-09-29T01:51:56.994Z,19.30
2022-09-29T01:55:01.079Z,13.68
2022-09-29T01:58:06.664Z,14.63
2022-09-29T02:01:11.611Z,17.60
2022-09-29T02:04:17.334Z,14.32
2022-09-29T02:07:22.743Z,15.17
2022-09-29T02:10:24.830Z,19.55
2022-09-29T02:13:27.575Z,18.92
2022-09-29T02:16:31.734Z,19.73
2022-09-29T02:19:36.773Z,18.33
2022-09-29T02:22:39.258Z,18.00
2022-09-29T02:25:41.406Z,21.13
2022-09-29T02:28:44.189Z,16.92
2022-09-29T02:31:47.480Z,18.13
2022-09-29T02:34:50.685Z,17.45
2022-09-29T02:38:05.507Z,16.50
2022-09-29T02:41:16.021Z,18.20
2022-09-29T02:44:30.370Z,19.42
2022-09-29T02:47:35.620Z,20.17
2022-09-29T02:50:43.852Z,17.35
2022-09-29T02:53:55.301Z,16.43
2022-09-29T02:56:57.375Z,14.93
2022-09-29T03:00:09.777Z,18.95
2022-09-29T03:03:12.009Z,13.13
2022-09-29T03:06:15.464Z,16.38
2022-09-29T03:09:17.765Z,14.37
2022-09-29T03:12:20.644Z,14.88
2022-09-29T03:15:22.772Z,15.35
2022-09-29T03:18:24.934Z,13.55
2022-09-29T03:21:27.529Z,14.52
2022-09-29T03:24:29.901Z,15.87
2022-09-29T03:27:32.384Z,15.45
2022-09-29T03:30:34.567Z,16.35
2022-09-29T03:33:38.568Z,16.35
2022-09-29T03:36:41.658Z,15.95
2022-09-29T03:39:43.849Z,15.10
2022-09-29T03:42:47.149Z,19.77
2022-09-29T03:45:50.096Z,22.02
2022-09-29T03:48:52.379Z,16.95
2022-09-29T03:51:54.919Z,21.38
2022-09-29T03:54:57.083Z,22.00
2022-09-29T03:57:59.474Z,25.27
2022-09-29T04:01:01.872Z,22.67
2022-09-29T04:04:05.520Z,27.23
2022-09-29T04:07:07.689Z,25.52
2022-09-29T04:10:10.157Z,25.13
2022-09-29T04:13:14.585Z,25.27
2022-09-29T04:16:20.353Z,26.20
2022-09-29T04:19:22.847Z,33.67
2022-09-29T04:22:25.386Z,31.98
2022-09-29T04:25:28.202Z,36.57
2022-09-29T04:28:34.787Z,41.13
2022-09-29T04:31:37.003Z,38.08
2022-09-29T04:34:39.239Z,29.83
2022-09-29T04:37:41.425Z,31.50
2022-09-29T04:40:43.701Z,34.27
2022-09-29T04:43:45.908Z,40.13
2022-09-29T04:46:51.407Z,37.40
2022-09-29T04:49:53.522Z,41.13
2022-09-29T04:52:55.993Z,41.75
2022-09-29T04:55:58.188Z,34.57
2022-09-29T04:59:00.639Z,44.38
2022-09-29T05:02:03.140Z,56.47
2022-09-29T05:05:06.640Z,49.88
2022-09-29T05:08:09.151Z,55.75
2022-09-29T05:11:11.326Z,53.07
2022-09-29T05:14:15.355Z,55.40
2022-09-29T05:17:18.648Z,51.50
2022-09-29T05:20:20.956Z,52.83
2022-09-29T05:23:23.546Z,52.42
2022-09-29T05:26:25.763Z,53.77
2022-09-29T05:29:28.054Z,45.30
2022-09-29T05:32:30.992Z,40.53
2022-09-29T05:35:33.259Z,40.58
2022-09-29T05:38:37.859Z,39.20
2022-09-29T05:41:42.304Z,40.93
2022-09-29T05:44:49.168Z,42.15
2022-09-29T05:48:16.075Z,44.53
2022-09-29T05:51:22.995Z,42.30
2022-09-29T05:54:27.687Z,43.20
2022-09-29T05:57:31.899Z,42.47
2022-09-29T06:00:35.790Z,41.50
2022-09-29T06:03:38.484Z,34.60
2022-09-29T06:06:42.211Z,37.40
2022-09-29T06:09:44.744Z,35.58
2022-09-29T06:12:47.096Z,39.10
2022-09-29T06:15:49.315Z,42.58
2022-09-29T06:18:51.643Z,33.78
2022-09-29T06:21:54.699Z,35.03
2022-09-29T06:24:58.500Z,31.45
2022-09-29T06:28:01.321Z,29.93
2022-09-29T06:31:10.495Z,31.23
2022-09-29T06:34:12.871Z,31.25
2022-09-29T06:37:34.142Z,31.88
2022-09-29T06:40:36.478Z,29.50
2022-09-29T06:43:39.013Z,27.20
2022-09-29T06:46:45.120Z,25.33
2022-09-29T06:50:06.423Z,25.92
2022-09-29T06:53:16.113Z,24.92
2022-09-29T06:56:33.092Z,27.17
2022-09-29T06:59:41.793Z,28.40
2022-09-29T07:02:48.682Z,25.67
2022-09-29T07:06:15.109Z,28.42
2022-09-29T07:09:16.460Z,24.95
2022-09-29T07:12:19.003Z,25.63
2022-09-29T07:15:21.923Z,25.10
2022-09-29T07:18:24.217Z,33.13
2022-09-29T07:21:29.139Z,30.10
2022-09-29T07:24:31.701Z,32.88
2022-09-29T07:27:35.452Z,33.17
2022-09-29T07:30:40.733Z,30.50
2022-09-29T07:33:44.206Z,28.02
2022-09-29T07:36:46.852Z,24.75
2022-09-29T07:39:49.495Z,21.83
2022-09-29T07:42:52.584Z,24.10
2022-09-29T07:45:55.285Z,27.20
2022-09-29T07:48:57.748Z,33.20
2022-09-29T07:55:36.130Z,34.40
2022-09-29T07:58:40.934Z,33.40
2022-09-29T08:01:44.712Z,30.15
2022-09-29T08:04:47.403Z,32.13
2022-09-29T08:07:53.125Z,33.00
2022-09-29T08:11:03.460Z,24.70
2022-09-29T08:14:06.318Z,21.88
2022-09-29T08:17:30.973Z,13.70
2022-09-29T08:20:34.958Z,11.98
2022-09-29T08:23:38.296Z,9.60
2022-09-29T08:26:44.152Z,10.38
2022-09-29T08:29:47.316Z,9.93
2022-09-29T08:32:53.351Z,9.13
2022-09-29T08:35:57.833Z,9.65
2022-09-29T08:39:00.347Z,10.17
2022-09-29T08:42:06.057Z,8.30
2022-09-29T08:45:16.646Z,7.85
2022-09-29T08:48:24.127Z,7.55
2022-09-29T08:51:40.566Z,8.25
2022-09-29T08:54:48.781Z,6.10
2022-09-29T08:57:55.109Z,6.82
2022-09-29T09:00:57.666Z,6.65
2022-09-29T09:04:12.420Z,9.65
2022-09-29T09:07:35.733Z,7.05
2022-09-29T09:10:47.694Z,8.53
2022-09-29T09:13:50.013Z,8.63
2022-09-29T09:17:01.460Z,9.05
2022-09-29T09:20:04.528Z,7.82
2022-09-29T09:23:29.601Z,7.07
2022-09-29T09:26:40.773Z,9.20
2022-09-29T09:29:48.083Z,11.43
2022-09-29T09:33:00.751Z,12.73
2022-09-29T09:36:05.812Z,12.18
2022-09-29T09:39:16.880Z,14.80
2022-09-29T09:42:21.505Z,14.77
2022-09-29T09:45:27.370Z,13.15
2022-09-29T09:54:11.586Z,11.65
2022-09-29T09:57:20.142Z,10.07
2022-09-29T10:00:26.068Z,10.07
2022-09-29T10:03:30.353Z,10.73
2022-09-29T10:06:34.048Z,10.30
2022-09-29T10:09:36.653Z,8.07
2022-09-29T10:12:39.124Z,8.10
2022-09-29T10:15:50.861Z,7.37
2022-09-29T10:18:58.378Z,7.43
2022-09-29T10:22:12.570Z,8.15
2022-09-29T10:25:15.076Z,7.40
2022-09-29T10:28:19.479Z,5.82
2022-09-29T10:31:29.628Z,6.27
2022-09-29T10:34:33.504Z,6.00
2022-09-29T10:37:38.472Z,6.85
2022-09-29T10:40:53.829Z,5.70
2022-09-29T10:43:56.579Z,5.40
2022-09-29T10:46:59.384Z,5.17
2022-09-29T10:50:34.803Z,5.10
2022-09-29T10:53:46.504Z,6.47
2022-09-29T10:57:00.538Z,5.13
2022-09-29T11:00:07.660Z,4.57
2022-09-29T11:03:23.744Z,5.03
2022-09-29T11:06:28.100Z,4.95
2022-09-29T11:09:38.832Z,4.20
2022-09-29T11:12:41.327Z,3.97
2022-09-29T11:15:43.656Z,3.85
2022-09-29T11:18:50.749Z,3.80
2022-09-29T11:21:59.009Z,3.60
2022-09-29T11:25:17.401Z,3.53
2022-09-29T11:28:46.760Z,3.00
2022-09-29T11:32:19.345Z,3.85
2022-09-29T11:35:40.351Z,2.83
2022-09-29T11:38:49.290Z,2.92
2022-09-29T11:46:23.031Z,3.35
2022-09-29T11:49:51.558Z,3.38
2022-09-29T11:53:07.734Z,2.77
2022-09-29T12:04:50.191Z,2.00
2022-09-29T12:08:52.790Z,2.13
2022-09-29T12:12:29.837Z,1.40
2022-09-29T12:15:50.668Z,1.20
2022-09-29T12:18:58.438Z,1.23
2022-09-29T12:22:03.102Z,0.93
2022-09-29T12:25:06.388Z,1.50
2022-09-29T12:28:18.182Z,1.30
2022-09-29T12:31:24.005Z,1.30
2022-09-29T12:34:45.248Z,2.20
2022-09-29T12:37:51.555Z,2.33
2022-09-29T12:40:59.774Z,3.50
2022-09-29T12:44:32.138Z,2.60
2022-09-29T12:47:40.394Z,2.08
2022-09-29T12:50:48.738Z,1.83
2022-09-29T12:54:35.688Z,2.45
2022-09-29T12:57:43.199Z,2.92
2022-09-29T13:00:59.873Z,2.63
2022-09-29T13:04:05.241Z,1.63
2022-09-29T13:07:10.653Z,2.00
2022-09-29T13:10:12.909Z,3.20
2022-09-29T13:13:34.993Z,2.20
2022-09-29T13:16:37.275Z,2.33
2022-09-29T13:19:56.809Z,1.58
2022-09-29T13:23:24.982Z,2.55
2022-09-29T13:26:27.307Z,1.88
2022-09-29T13:29:32.751Z,1.70
2022-09-29T13:32:42.422Z,4.77
2022-09-29T13:39:21.850Z,3.00
2022-09-29T13:42:50.207Z,2.15
2022-09-29T13:45:55.006Z,1.80
2022-09-29T13:49:09.447Z,2.40
2022-09-29T13:52:11.952Z,3.72
2022-09-29T13:55:33.419Z,2.08
2022-09-29T13:58:39.214Z,1.85
2022-09-29T14:01:41.873Z,4.22
2022-09-29T14:04:50.953Z,2.40
2022-09-29T14:07:57.119Z,2.53
2022-09-29T14:11:05.468Z,2.83
2022-09-29T14:14:07.904Z,3.00
2022-09-29T14:17:14.247Z,2.15
2022-09-29T14:20:19.511Z,2.10
2022-09-29T14:23:41.911Z,3.28
2022-09-29T14:26:46.419Z,3.72
2022-09-29T14:29:51.355Z,3.35
2022-09-29T14:33:00.974Z,3.03
2022-09-29T14:36:10.979Z,2.33
2022-09-29T14:39:35.511Z,4.50
2022-09-29T14:42:36.392Z,3.25
2022-09-29T14:46:04.015Z,3.95
2022-09-29T14:49:42.629Z,3.97
2022-09-29T14:53:06.556Z,2.60
2022-09-29T14:56:24.212Z,2.55
2022-09-29T14:59:32.663Z,2.63
2022-09-29T15:02:37.078Z,2.88
2022-09-29T15:05:39.388Z,2.00
2022-09-29T15:08:42.661Z,2.63
2022-09-29T15:11:49.545Z,2.80
2022-09-29T15:14:51.979Z,2.72
2022-09-29T15:18:01.329Z,4.68
2022-09-29T15:21:10.773Z,2.95
2022-09-29T15:24:14.604Z,2.53
2022-09-29T15:27:17.065Z,2.33
2022-09-29T15:30:20.602Z,4.47
2022-09-29T15:33:24.350Z,2.70
2022-09-29T15:36:37.217Z,2.47
2022-09-29T15:39:43.848Z,2.97
2022-09-29T15:42:46.837Z,3.65
2022-09-29T15:45:58.494Z,4.30
2022-09-29T15:49:00.748Z,3.78
2022-09-29T15:52:04.390Z,2.45
2022-09-29T15:55:06.739Z,2.97
2022-09-29T15:58:27.333Z,2.78
2022-09-29T16:01:29.642Z,2.75
2022-09-29T16:04:35.152Z,2.85
2022-09-29T16:07:39.247Z,4.82
2022-09-29T16:10:55.118Z,3.37
2022-09-29T16:14:06.924Z,4.38
2022-09-29T16:17:09.198Z,3.75
2022-09-29T16:20:16.047Z,4.28
2022-09-29T16:23:28.490Z,3.83
2022-09-29T16:26:44.668Z,4.30
2022-09-29T16:29:46.936Z,8.73
2022-09-29T16:32:53.560Z,4.32
2022-09-29T16:35:58.661Z,6.70
2022-09-29T16:39:01.264Z,5.25
2022-09-29T16:42:06.351Z,5.60
2022-09-29T16:45:14.329Z,6.07
2022-09-29T16:48:17.308Z,3.63
2022-09-29T16:51:38.110Z,5.75
2022-09-29T16:54:45.395Z,7.35
2022-09-29T16:57:55.102Z,5.13
2022-09-29T17:00:57.397Z,5.18
2022-09-29T17:03:59.596Z,5.95
2022-09-29T17:07:01.875Z,6.72
2022-09-29T17:10:04.230Z,8.25
2022-09-29T17:13:16.676Z,9.70
2022-09-29T17:16:21.681Z,9.75
2022-09-29T17:19:23.969Z,9.10
2022-09-29T17:22:34.561Z,7.60
2022-09-29T17:25:38.067Z,9.38
2022-09-29T17:28:40.315Z,9.23
2022-09-29T17:31:42.555Z,11.05
2022-09-29T17:34:44.660Z,11.48
2022-09-29T17:37:47.812Z,12.77
2022-09-29T17:41:02.371Z,9.70
2022-09-29T17:44:09.897Z,12.07
2022-09-29T17:47:28.312Z,12.40
2022-09-29T17:50:36.791Z,10.90
2022-09-29T17:53:39.325Z,11.55
2022-09-29T17:56:42.350Z,15.43
2022-09-29T17:59:44.472Z,12.93
2022-09-29T18:02:46.970Z,11.35
2022-09-29T18:05:56.593Z,11.55
2022-09-29T18:08:59.806Z,11.63
2022-09-29T18:12:02.020Z,10.60
2022-09-29T18:15:04.417Z,82.00
2022-09-29T18:18:07.684Z,18.90
2022-09-29T18:21:10.109Z,14.73
2022-09-29T18:24:12.362Z,39.70
2022-09-29T18:27:14.949Z,28.58
2022-09-29T18:30:22.345Z,25.83
2022-09-29T18:33:24.532Z,50.78
2022-09-29T18:36:26.789Z,19.50
2022-09-29T18:39:28.986Z,98.22
2022-09-29T18:42:31.138Z,31.73
2022-09-29T18:45:37.490Z,26.10
2022-09-29T18:48:40.043Z,30.35
2022-09-29T18:51:42.265Z,28.92
2022-09-29T18:54:44.441Z,33.30
2022-09-29T18:57:47.399Z,38.40
2022-09-29T19:00:51.302Z,38.83
2022-09-29T19:03:53.548Z,38.25
2022-09-29T19:06:55.765Z,35.00
2022-09-29T19:09:57.962Z,37.88
2022-09-29T19:13:02.811Z,39.10
2022-09-29T19:16:05.455Z,72.23
2022-09-29T19:19:10.252Z,153.63
2022-09-29T19:22:12.851Z,37.28
2022-09-29T19:25:16.453Z,33.97
2022-09-29T19:28:19.189Z,33.22
2022-09-29T19:31:21.818Z,32.40
2022-09-29T19:34:24.128Z,40.05
2022-09-29T19:37:26.418Z,34.90
2022-09-29T19:40:30.436Z,47.05
2022-09-29T19:43:32.889Z,43.78
2022-09-29T19:46:35.127Z,39.07
2022-09-29T19:49:37.330Z,82.25
2022-09-29T19:52:39.811Z,35.83
2022-09-29T19:55:42.132Z,34.08
2022-09-29T19:58:44.492Z,33.50
2022-09-29T20:01:49.944Z,36.20
2022-09-29T20:04:52.589Z,37.05
2022-09-29T20:07:54.802Z,32.22
2022-09-29T20:11:04.900Z,36.70
2022-09-29T20:14:08.084Z,34.85
2022-09-29T20:17:10.231Z,38.23
2022-09-29T20:20:13.027Z,35.60
2022-09-29T20:23:15.149Z,33.97
2022-09-29T20:26:17.312Z,34.88
2022-09-29T20:29:19.753Z,31.83
2022-09-29T20:32:22.036Z,28.33
2022-09-29T20:35:24.200Z,47.50
2022-09-29T20:38:26.379Z,164.48
2022-09-29T20:41:31.504Z,68.20
2022-09-29T20:44:33.702Z,41.88
2022-09-29T20:47:37.112Z,35.40
2022-09-29T20:50:39.841Z,43.50
2022-09-29T20:53:43.507Z,41.03
2022-09-29T20:56:45.837Z,33.33
2022-09-29T20:59:48.356Z,28.88
2022-09-29T21:02:50.593Z,25.10
2022-09-29T21:05:52.866Z,59.53
2022-09-29T21:08:55.180Z,28.10
2022-09-29T21:11:57.564Z,30.90
2022-09-29T21:15:00.568Z,64.63
2022-09-29T21:18:02.806Z,32.57
2022-09-29T21:21:10.189Z,32.80
2022-09-29T21:24:14.489Z,34.08
2022-09-29T21:27:17.884Z,33.63
2022-09-29T21:30:20.354Z,36.25
2022-09-29T21:33:22.586Z,46.13
2022-09-29T21:36:25.837Z,40.40
2022-09-29T21:39:28.016Z,45.35
2022-09-29T21:42:32.009Z,67.43
2022-09-29T21:45:34.307Z,59.60
2022-09-29T21:48:36.514Z,55.17
2022-09-29T21:51:42.951Z,60.92
2022-09-29T21:54:45.127Z,68.97
2022-09-29T21:57:47.485Z,63.67
2022-09-29T22:00:49.648Z,63.42
2022-09-29T22:03:52.560Z,60.03
2022-09-29T22:06:54.732Z,66.03
2022-09-29T22:09:56.906Z,70.38
2022-09-29T22:12:59.197Z,61.35
2022-09-29T22:16:04.240Z,68.35
2022-09-29T22:19:22.383Z,63.37
2022-09-29T22:22:24.948Z,50.53
2022-09-29T22:25:32.140Z,49.60
2022-09-29T22:28:35.106Z,45.80
2022-09-29T22:31:40.348Z,44.03
2022-09-29T22:34:43.410Z,44.47
2022-09-29T22:37:45.755Z,39.85
2022-09-29T22:40:49.257Z,42.40
2022-09-29T22:43:55.089Z,38.97
2022-09-29T22:46:57.351Z,41.35
2022-09-29T22:49:59.868Z,41.90
2022-09-29T22:53:02.265Z,46.67
2022-09-29T22:56:12.342Z,49.63
2022-09-29T22:59:14.619Z,51.60
2022-09-29T23:02:16.971Z,68.32
2022-09-29T23:05:19.117Z,62.70
2022-09-29T23:08:21.569Z,69.90
2022-09-29T23:11:24.006Z,71.97
2022-09-29T23:14:26.209Z,73.38
2022-09-29T23:17:29.950Z,76.80
2022-09-29T23:20:32.369Z,55.27
2022-09-29T23:23:34.533Z,61.97
2022-09-29T23:26:36.661Z,75.40
2022-09-29T23:29:38.819Z,81.65
2022-09-29T23:32:41.237Z,90.43
2022-09-29T23:35:43.580Z,89.63
2022-09-29T23:39:04.307Z,90.38
2022-09-29T23:42:08.671Z,91.00
2022-09-29T23:45:11.167Z,89.03
2022-09-29T23:48:14.561Z,93.40
2022-09-29T23:51:18.554Z,88.80
2022-09-29T23:54:22.237Z,85.53
2022-09-29T23:57:24.564Z,73.40
